sensor_id;sensor_type;location;lat;lon;timestamp;temperature;humidity
26270;DHT22;15937;50.612;6.656;2022-12-16T00:00:16;-6.20;99.90
26270;DHT22;15937;50.612;6.656;2022-12-16T00:04:17;-6.30;99.90
26270;DHT22;15937;50.612;6.656;2022-12-16T00:08:19;-6.40;99.90
26270;DHT22;15937;50.612;6.656;2022-12-16T00:12:20;-6.30;99.90
26270;DHT22;15937;50.612;6.656;2022-12-16T00:16:22;-6.40;99.90
26270;DHT22;15937;50.612;6.656;2022-12-16T00:20:24;-6.30;99.90
26270;DHT22;15937;50.612;6.656;2022-12-16T00:24:26;-6.30;99.90
26270;DHT22;15937;50.612;6.656;2022-12-16T00:28:27;-6.30;99.90
26270;DHT22;15937;50.612;6.656;2022-12-16T00:32:30;-6.20;99.90
26270;DHT22;15937;50.612;6.656;2022-12-16T00:36:31;-6.20;99.90
26270;DHT22;15937;50.612;6.656;2022-12-16T00:40:33;-6.20;99.90
26270;DHT22;15937;50.612;6.656;2022-12-16T00:44:35;-6.20;99.90
26270;DHT22;15937;50.612;6.656;2022-12-16T00:48:37;-6.20;99.90
26270;DHT22;15937;50.612;6.656;2022-12-16T00:52:38;-6.30;99.90
26270;DHT22;15937;50.612;6.656;2022-12-16T00:56:40;-6.40;99.90
26270;DHT22;15937;50.612;6.656;2022-12-16T01:00:41;-6.40;99.90
26270;DHT22;15937;50.612;6.656;2022-12-16T01:04:43;-6.40;99.90
26270;DHT22;15937;50.612;6.656;2022-12-16T01:08:44;-6.40;99.90
26270;DHT22;15937;50.612;6.656;2022-12-16T01:12:49;-6.60;99.90
26270;DHT22;15937;50.612;6.656;2022-12-16T01:16:51;-6.70;99.90
26270;DHT22;15937;50.612;6.656;2022-12-16T01:21:00;-6.70;99.90
26270;DHT22;15937;50.612;6.656;2022-12-16T01:25:02;-6.60;99.90
26270;DHT22;15937;50.612;6.656;2022-12-16T01:29:04;-6.50;99.90
26270;DHT22;15937;50.612;6.656;2022-12-16T01:33:06;-6.60;99.90
26270;DHT22;15937;50.612;6.656;2022-12-16T01:37:12;-6.60;99.90
26270;DHT22;15937;50.612;6.656;2022-12-16T01:41:14;-6.60;99.90
26270;DHT22;15937;50.612;6.656;2022-12-16T01:45:32;-6.60;99.90
26270;DHT22;15937;50.612;6.656;2022-12-16T01:49:36;-6.60;99.90
26270;DHT22;15937;50.612;6.656;2022-12-16T01:53:39;-6.60;99.90
26270;DHT22;15937;50.612;6.656;2022-12-16T01:57:45;-6.50;99.90
26270;DHT22;15937;50.612;6.656;2022-12-16T02:01:48;-6.50;99.90
26270;DHT22;15937;50.612;6.656;2022-12-16T02:05:50;-6.50;99.90
26270;DHT22;15937;50.612;6.656;2022-12-16T02:09:52;-6.40;99.90
26270;DHT22;15937;50.612;6.656;2022-12-16T02:13:59;-6.50;99.90
26270;DHT22;15937;50.612;6.656;2022-12-16T02:18:17;-6.50;99.90
26270;DHT22;15937;50.612;6.656;2022-12-16T02:30:46;-6.40;99.90
26270;DHT22;15937;50.612;6.656;2022-12-16T02:39:13;-6.50;99.90
26270;DHT22;15937;50.612;6.656;2022-12-16T02:44:03;-6.60;99.90
26270;DHT22;15937;50.612;6.656;2022-12-16T02:47:39;-6.60;99.90
26270;DHT22;15937;50.612;6.656;2022-12-16T02:51:41;-6.60;99.90
26270;DHT22;15937;50.612;6.656;2022-12-16T03:08:30;-6.60;99.90
26270;DHT22;15937;50.612;6.656;2022-12-16T03:12:34;-6.60;99.90
26270;DHT22;15937;50.612;6.656;2022-12-16T03:16:37;-6.70;99.90
26270;DHT22;15937;50.612;6.656;2022-12-16T03:20:40;-6.60;99.90
26270;DHT22;15937;50.612;6.656;2022-12-16T03:24:43;-6.60;99.90
26270;DHT22;15937;50.612;6.656;2022-12-16T03:28:50;-6.70;99.90
26270;DHT22;15937;50.612;6.656;2022-12-16T03:33:13;-6.70;99.90
26270;DHT22;15937;50.612;6.656;2022-12-16T03:37:16;-6.70;99.90
26270;DHT22;15937;50.612;6.656;2022-12-16T03:41:19;-6.80;99.90
26270;DHT22;15937;50.612;6.656;2022-12-16T03:45:24;-6.70;99.90
26270;DHT22;15937;50.612;6.656;2022-12-16T03:49:27;-6.60;99.90
26270;DHT22;15937;50.612;6.656;2022-12-16T03:53:28;-6.60;99.90
26270;DHT22;15937;50.612;6.656;2022-12-16T03:57:31;-6.50;99.90
26270;DHT22;15937;50.612;6.656;2022-12-16T04:01:32;-6.60;99.90
26270;DHT22;15937;50.612;6.656;2022-12-16T04:05:34;-6.60;99.90
26270;DHT22;15937;50.612;6.656;2022-12-16T04:09:36;-6.60;99.90
26270;DHT22;15937;50.612;6.656;2022-12-16T04:13:37;-6.50;99.90
26270;DHT22;15937;50.612;6.656;2022-12-16T04:17:58;-6.60;99.90
26270;DHT22;15937;50.612;6.656;2022-12-16T04:22:42;-6.60;99.90
26270;DHT22;15937;50.612;6.656;2022-12-16T04:27:40;-6.70;99.90
26270;DHT22;15937;50.612;6.656;2022-12-16T04:32:11;-6.90;99.90
26270;DHT22;15937;50.612;6.656;2022-12-16T04:36:37;-6.70;99.90
26270;DHT22;15937;50.612;6.656;2022-12-16T04:41:21;-6.70;99.90
26270;DHT22;15937;50.612;6.656;2022-12-16T04:46:06;-6.70;99.90
26270;DHT22;15937;50.612;6.656;2022-12-16T04:50:51;-6.60;99.90
26270;DHT22;15937;50.612;6.656;2022-12-16T04:55:36;-6.70;99.90
26270;DHT22;15937;50.612;6.656;2022-12-16T05:00:21;-6.60;99.90
26270;DHT22;15937;50.612;6.656;2022-12-16T05:05:06;-6.70;99.90
26270;DHT22;15937;50.612;6.656;2022-12-16T05:09:51;-6.70;99.90
26270;DHT22;15937;50.612;6.656;2022-12-16T05:14:36;-6.60;99.90
26270;DHT22;15937;50.612;6.656;2022-12-16T05:19:21;-6.70;99.90
26270;DHT22;15937;50.612;6.656;2022-12-16T05:24:06;-6.70;99.90
26270;DHT22;15937;50.612;6.656;2022-12-16T05:28:26;-6.60;99.90
26270;DHT22;15937;50.612;6.656;2022-12-16T05:32:47;-6.50;99.90
26270;DHT22;15937;50.612;6.656;2022-12-16T05:37:09;-6.60;99.90
26270;DHT22;15937;50.612;6.656;2022-12-16T05:41:29;-6.60;99.90
26270;DHT22;15937;50.612;6.656;2022-12-16T05:45:49;-6.60;99.90
26270;DHT22;15937;50.612;6.656;2022-12-16T05:50:10;-6.50;99.90
26270;DHT22;15937;50.612;6.656;2022-12-16T05:54:30;-6.60;99.90
26270;DHT22;15937;50.612;6.656;2022-12-16T05:58:50;-6.70;99.90
26270;DHT22;15937;50.612;6.656;2022-12-16T06:03:30;-6.60;99.90
26270;DHT22;15937;50.612;6.656;2022-12-16T06:07:51;-6.60;99.90
26270;DHT22;15937;50.612;6.656;2022-12-16T06:12:12;-6.60;99.90
26270;DHT22;15937;50.612;6.656;2022-12-16T06:16:32;-6.60;99.90
26270;DHT22;15937;50.612;6.656;2022-12-16T06:20:52;-6.60;99.90
26270;DHT22;15937;50.612;6.656;2022-12-16T06:25:12;-6.60;99.90
26270;DHT22;15937;50.612;6.656;2022-12-16T06:29:32;-6.60;99.90
26270;DHT22;15937;50.612;6.656;2022-12-16T06:33:53;-6.60;99.90
26270;DHT22;15937;50.612;6.656;2022-12-16T06:38:13;-6.60;99.90
26270;DHT22;15937;50.612;6.656;2022-12-16T06:42:34;-6.70;99.90
26270;DHT22;15937;50.612;6.656;2022-12-16T06:46:57;-6.70;99.90
26270;DHT22;15937;50.612;6.656;2022-12-16T06:51:17;-6.70;99.90
26270;DHT22;15937;50.612;6.656;2022-12-16T06:55:38;-6.50;99.90
26270;DHT22;15937;50.612;6.656;2022-12-16T06:59:58;-6.50;99.90
26270;DHT22;15937;50.612;6.656;2022-12-16T07:04:18;-6.50;99.90
26270;DHT22;15937;50.612;6.656;2022-12-16T07:08:38;-6.60;99.90
26270;DHT22;15937;50.612;6.656;2022-12-16T07:12:59;-6.70;99.90
26270;DHT22;15937;50.612;6.656;2022-12-16T07:17:19;-6.60;99.90
26270;DHT22;15937;50.612;6.656;2022-12-16T07:21:39;-6.60;99.90
26270;DHT22;15937;50.612;6.656;2022-12-16T07:26:03;-6.60;99.90
26270;DHT22;15937;50.612;6.656;2022-12-16T07:30:23;-6.60;99.90
26270;DHT22;15937;50.612;6.656;2022-12-16T07:34:44;-6.50;99.90
26270;DHT22;15937;50.612;6.656;2022-12-16T07:39:04;-6.50;99.90
26270;DHT22;15937;50.612;6.656;2022-12-16T07:43:24;-6.60;99.90
26270;DHT22;15937;50.612;6.656;2022-12-16T07:47:46;-6.50;99.90
26270;DHT22;15937;50.612;6.656;2022-12-16T07:52:06;-6.50;99.90
26270;DHT22;15937;50.612;6.656;2022-12-16T07:56:26;-6.50;99.90
26270;DHT22;15937;50.612;6.656;2022-12-16T08:00:47;-6.50;99.90
26270;DHT22;15937;50.612;6.656;2022-12-16T08:05:10;-6.40;99.90
26270;DHT22;15937;50.612;6.656;2022-12-16T08:09:30;-6.30;99.90
26270;DHT22;15937;50.612;6.656;2022-12-16T08:13:50;-6.30;99.90
26270;DHT22;15937;50.612;6.656;2022-12-16T08:18:10;-6.20;99.90
26270;DHT22;15937;50.612;6.656;2022-12-16T08:22:31;-6.20;99.90
26270;DHT22;15937;50.612;6.656;2022-12-16T08:26:51;-6.00;99.90
26270;DHT22;15937;50.612;6.656;2022-12-16T08:31:11;-5.90;99.90
26270;DHT22;15937;50.612;6.656;2022-12-16T08:35:32;-5.80;99.90
26270;DHT22;15937;50.612;6.656;2022-12-16T08:39:53;-5.70;99.90
26270;DHT22;15937;50.612;6.656;2022-12-16T08:44:33;-5.60;99.90
26270;DHT22;15937;50.612;6.656;2022-12-16T08:49:02;-5.60;99.90
26270;DHT22;15937;50.612;6.656;2022-12-16T08:53:23;-5.30;99.90
26270;DHT22;15937;50.612;6.656;2022-12-16T08:57:51;-5.20;99.90
26270;DHT22;15937;50.612;6.656;2022-12-16T09:02:11;-5.10;99.90
26270;DHT22;15937;50.612;6.656;2022-12-16T09:06:31;-4.90;99.90
26270;DHT22;15937;50.612;6.656;2022-12-16T09:10:52;-4.80;99.90
26270;DHT22;15937;50.612;6.656;2022-12-16T09:15:12;-4.70;99.90
26270;DHT22;15937;50.612;6.656;2022-12-16T09:19:32;-4.50;99.90
26270;DHT22;15937;50.612;6.656;2022-12-16T09:23:54;-4.40;99.90
26270;DHT22;15937;50.612;6.656;2022-12-16T09:28:14;-4.30;99.90
26270;DHT22;15937;50.612;6.656;2022-12-16T09:32:34;-4.20;99.90
26270;DHT22;15937;50.612;6.656;2022-12-16T09:36:59;-4.10;99.90
26270;DHT22;15937;50.612;6.656;2022-12-16T09:45:52;-3.10;99.90
26270;DHT22;15937;50.612;6.656;2022-12-16T09:50:21;-3.00;99.90
26270;DHT22;15937;50.612;6.656;2022-12-16T09:54:43;-3.20;99.90
26270;DHT22;15937;50.612;6.656;2022-12-16T09:59:05;-3.20;99.90
26270;DHT22;15937;50.612;6.656;2022-12-16T10:03:28;-3.10;99.90
26270;DHT22;15937;50.612;6.656;2022-12-16T10:07:59;-2.90;99.90
26270;DHT22;15937;50.612;6.656;2022-12-16T10:12:37;-2.80;99.90
26270;DHT22;15937;50.612;6.656;2022-12-16T10:17:08;-2.70;99.90
26270;DHT22;15937;50.612;6.656;2022-12-16T10:22:05;-2.50;99.90
26270;DHT22;15937;50.612;6.656;2022-12-16T10:30:46;-2.20;99.90
26270;DHT22;15937;50.612;6.656;2022-12-16T10:35:21;-2.00;99.90
26270;DHT22;15937;50.612;6.656;2022-12-16T10:39:43;-1.90;99.90
26270;DHT22;15937;50.612;6.656;2022-12-16T10:44:10;-1.70;99.90
26270;DHT22;15937;50.612;6.656;2022-12-16T10:48:32;-1.50;99.90
26270;DHT22;15937;50.612;6.656;2022-12-16T10:53:30;-1.40;99.90
26270;DHT22;15937;50.612;6.656;2022-12-16T11:02:23;-1.20;99.90
26270;DHT22;15937;50.612;6.656;2022-12-16T11:06:44;-1.00;99.90
26270;DHT22;15937;50.612;6.656;2022-12-16T11:11:11;-1.00;99.90
26270;DHT22;15937;50.612;6.656;2022-12-16T11:15:31;-0.90;99.90
26270;DHT22;15937;50.612;6.656;2022-12-16T11:20:03;-0.80;99.90
26270;DHT22;15937;50.612;6.656;2022-12-16T11:24:24;-0.90;99.90
26270;DHT22;15937;50.612;6.656;2022-12-16T11:28:45;-0.80;99.90
26270;DHT22;15937;50.612;6.656;2022-12-16T11:33:09;-0.60;99.90
26270;DHT22;15937;50.612;6.656;2022-12-16T11:37:31;-0.50;99.90
26270;DHT22;15937;50.612;6.656;2022-12-16T11:41:52;-0.60;99.90
26270;DHT22;15937;50.612;6.656;2022-12-16T11:46:17;-0.30;99.90
26270;DHT22;15937;50.612;6.656;2022-12-16T11:50:40;-0.20;99.90
26270;DHT22;15937;50.612;6.656;2022-12-16T11:55:06;0.00;99.90
26270;DHT22;15937;50.612;6.656;2022-12-16T11:59:55;-0.10;99.90
26270;DHT22;15937;50.612;6.656;2022-12-16T12:04:18;-0.10;99.90
26270;DHT22;15937;50.612;6.656;2022-12-16T12:13:06;-0.10;99.90
26270;DHT22;15937;50.612;6.656;2022-12-16T12:17:34;-0.10;99.90
26270;DHT22;15937;50.612;6.656;2022-12-16T12:21:59;0.00;99.90
26270;DHT22;15937;50.612;6.656;2022-12-16T12:26:22;0.00;99.90
26270;DHT22;15937;50.612;6.656;2022-12-16T12:31:05;0.00;99.90
26270;DHT22;15937;50.612;6.656;2022-12-16T12:40:21;0.00;99.90
26270;DHT22;15937;50.612;6.656;2022-12-16T12:49:52;0.00;99.90
26270;DHT22;15937;50.612;6.656;2022-12-16T12:58:33;-0.10;99.90
26270;DHT22;15937;50.612;6.656;2022-12-16T13:03:04;-0.40;99.90
26270;DHT22;15937;50.612;6.656;2022-12-16T13:07:27;-0.50;99.90
26270;DHT22;15937;50.612;6.656;2022-12-16T13:21:01;-1.50;99.90
26270;DHT22;15937;50.612;6.656;2022-12-16T13:30:01;-1.80;99.90
26270;DHT22;15937;50.612;6.656;2022-12-16T13:34:23;-2.10;99.90
26270;DHT22;15937;50.612;6.656;2022-12-16T13:38:46;-1.90;99.90
26270;DHT22;15937;50.612;6.656;2022-12-16T13:48:23;-1.70;99.90
26270;DHT22;15937;50.612;6.656;2022-12-16T13:52:52;-1.80;99.90
26270;DHT22;15937;50.612;6.656;2022-12-16T13:57:14;-1.80;99.90
26270;DHT22;15937;50.612;6.656;2022-12-16T14:01:42;-1.60;99.90
26270;DHT22;15937;50.612;6.656;2022-12-16T14:06:05;-1.50;99.90
26270;DHT22;15937;50.612;6.656;2022-12-16T14:10:34;-1.60;99.90
26270;DHT22;15937;50.612;6.656;2022-12-16T14:15:00;-1.60;99.90
26270;DHT22;15937;50.612;6.656;2022-12-16T14:19:37;-1.70;99.90
26270;DHT22;15937;50.612;6.656;2022-12-16T14:24:03;-1.70;99.90
26270;DHT22;15937;50.612;6.656;2022-12-16T14:28:28;-1.70;99.90
26270;DHT22;15937;50.612;6.656;2022-12-16T14:32:49;-1.60;99.90
26270;DHT22;15937;50.612;6.656;2022-12-16T14:37:17;-1.70;99.90
26270;DHT22;15937;50.612;6.656;2022-12-16T14:41:37;-1.70;99.90
26270;DHT22;15937;50.612;6.656;2022-12-16T14:45:57;-1.60;99.90
26270;DHT22;15937;50.612;6.656;2022-12-16T14:50:19;-1.50;99.90
26270;DHT22;15937;50.612;6.656;2022-12-16T14:54:42;-1.50;99.90
26270;DHT22;15937;50.612;6.656;2022-12-16T15:03:39;-1.60;99.90
26270;DHT22;15937;50.612;6.656;2022-12-16T15:08:00;-1.60;99.90
26270;DHT22;15937;50.612;6.656;2022-12-16T15:12:21;-1.40;99.90
26270;DHT22;15937;50.612;6.656;2022-12-16T15:16:42;-1.40;99.90
26270;DHT22;15937;50.612;6.656;2022-12-16T15:21:03;-1.40;99.90
26270;DHT22;15937;50.612;6.656;2022-12-16T15:25:28;-1.30;99.90
26270;DHT22;15937;50.612;6.656;2022-12-16T15:29:48;-1.70;99.90
26270;DHT22;15937;50.612;6.656;2022-12-16T15:34:22;-1.80;99.90
26270;DHT22;15937;50.612;6.656;2022-12-16T15:38:46;-1.70;99.90
26270;DHT22;15937;50.612;6.656;2022-12-16T15:47:59;-1.60;99.90
26270;DHT22;15937;50.612;6.656;2022-12-16T15:56:49;-1.50;99.90
26270;DHT22;15937;50.612;6.656;2022-12-16T16:01:10;-1.60;99.90
26270;DHT22;15937;50.612;6.656;2022-12-16T16:05:31;-1.70;99.90
26270;DHT22;15937;50.612;6.656;2022-12-16T16:09:53;-1.40;99.90
26270;DHT22;15937;50.612;6.656;2022-12-16T16:14:21;-1.50;99.90
26270;DHT22;15937;50.612;6.656;2022-12-16T16:18:41;-1.60;99.90
26270;DHT22;15937;50.612;6.656;2022-12-16T16:23:02;-1.40;99.90
26270;DHT22;15937;50.612;6.656;2022-12-16T16:27:23;-1.40;99.90
26270;DHT22;15937;50.612;6.656;2022-12-16T16:31:45;-1.20;99.90
26270;DHT22;15937;50.612;6.656;2022-12-16T16:36:10;-1.50;99.90
26270;DHT22;15937;50.612;6.656;2022-12-16T16:40:33;-1.40;99.90
26270;DHT22;15937;50.612;6.656;2022-12-16T16:44:54;-1.40;99.90
26270;DHT22;15937;50.612;6.656;2022-12-16T16:54:04;-1.40;99.90
26270;DHT22;15937;50.612;6.656;2022-12-16T16:58:25;-1.30;99.90
26270;DHT22;15937;50.612;6.656;2022-12-16T17:02:46;-1.40;99.90
26270;DHT22;15937;50.612;6.656;2022-12-16T17:07:06;-1.10;99.90
26270;DHT22;15937;50.612;6.656;2022-12-16T17:11:27;-1.20;99.90
26270;DHT22;15937;50.612;6.656;2022-12-16T17:15:47;-1.10;99.90
26270;DHT22;15937;50.612;6.656;2022-12-16T17:20:12;-1.00;99.90
26270;DHT22;15937;50.612;6.656;2022-12-16T17:24:33;-1.10;99.90
26270;DHT22;15937;50.612;6.656;2022-12-16T17:28:55;-1.20;99.90
26270;DHT22;15937;50.612;6.656;2022-12-16T17:33:15;-1.20;99.90
26270;DHT22;15937;50.612;6.656;2022-12-16T17:37:36;-1.10;99.90
26270;DHT22;15937;50.612;6.656;2022-12-16T17:41:56;-1.00;99.90
26270;DHT22;15937;50.612;6.656;2022-12-16T17:46:16;-1.10;99.90
26270;DHT22;15937;50.612;6.656;2022-12-16T17:50:37;-1.10;99.90
26270;DHT22;15937;50.612;6.656;2022-12-16T17:54:58;-1.10;99.90
26270;DHT22;15937;50.612;6.656;2022-12-16T17:59:19;-0.90;99.90
26270;DHT22;15937;50.612;6.656;2022-12-16T18:03:40;-1.10;99.90
26270;DHT22;15937;50.612;6.656;2022-12-16T18:08:00;-1.10;99.90
26270;DHT22;15937;50.612;6.656;2022-12-16T18:12:21;-1.10;99.90
26270;DHT22;15937;50.612;6.656;2022-12-16T18:16:41;-1.00;99.90
26270;DHT22;15937;50.612;6.656;2022-12-16T18:21:09;-0.90;99.90
26270;DHT22;15937;50.612;6.656;2022-12-16T18:25:29;-0.80;99.90
26270;DHT22;15937;50.612;6.656;2022-12-16T18:29:50;-0.80;99.90
26270;DHT22;15937;50.612;6.656;2022-12-16T18:34:13;-0.70;99.90
26270;DHT22;15937;50.612;6.656;2022-12-16T18:38:33;-0.70;99.90
26270;DHT22;15937;50.612;6.656;2022-12-16T18:42:54;-0.70;99.90
26270;DHT22;15937;50.612;6.656;2022-12-16T18:47:14;-0.60;99.90
26270;DHT22;15937;50.612;6.656;2022-12-16T18:51:35;-0.70;99.90
26270;DHT22;15937;50.612;6.656;2022-12-16T18:56:00;-0.50;99.90
26270;DHT22;15937;50.612;6.656;2022-12-16T19:00:22;-0.50;99.90
26270;DHT22;15937;50.612;6.656;2022-12-16T19:04:43;-0.50;99.90
26270;DHT22;15937;50.612;6.656;2022-12-16T19:09:03;-0.50;99.90
26270;DHT22;15937;50.612;6.656;2022-12-16T19:13:23;-0.70;99.90
26270;DHT22;15937;50.612;6.656;2022-12-16T19:17:43;-0.50;99.90
26270;DHT22;15937;50.612;6.656;2022-12-16T19:22:03;-0.40;99.90
26270;DHT22;15937;50.612;6.656;2022-12-16T19:26:23;-0.50;99.90
26270;DHT22;15937;50.612;6.656;2022-12-16T19:30:52;-0.40;99.90
26270;DHT22;15937;50.612;6.656;2022-12-16T19:35:12;-0.50;99.90
26270;DHT22;15937;50.612;6.656;2022-12-16T19:39:32;-0.60;99.90
26270;DHT22;15937;50.612;6.656;2022-12-16T19:43:52;-0.50;99.90
26270;DHT22;15937;50.612;6.656;2022-12-16T19:48:12;-0.60;99.90
26270;DHT22;15937;50.612;6.656;2022-12-16T19:52:32;-0.60;99.90
26270;DHT22;15937;50.612;6.656;2022-12-16T19:57:03;-0.60;99.90
26270;DHT22;15937;50.612;6.656;2022-12-16T20:01:23;-0.70;99.90
26270;DHT22;15937;50.612;6.656;2022-12-16T20:05:44;-0.60;99.90
26270;DHT22;15937;50.612;6.656;2022-12-16T20:10:04;-0.50;99.90
26270;DHT22;15937;50.612;6.656;2022-12-16T20:14:24;-0.60;99.90
26270;DHT22;15937;50.612;6.656;2022-12-16T20:18:44;-0.50;99.90
26270;DHT22;15937;50.612;6.656;2022-12-16T20:23:05;-0.60;99.90
26270;DHT22;15937;50.612;6.656;2022-12-16T20:27:25;-0.50;99.90
26270;DHT22;15937;50.612;6.656;2022-12-16T20:31:46;-0.40;99.90
26270;DHT22;15937;50.612;6.656;2022-12-16T20:36:06;-0.40;99.90
26270;DHT22;15937;50.612;6.656;2022-12-16T20:40:26;-0.40;99.90
26270;DHT22;15937;50.612;6.656;2022-12-16T20:44:47;-0.40;99.90
26270;DHT22;15937;50.612;6.656;2022-12-16T20:49:07;-0.50;99.90
26270;DHT22;15937;50.612;6.656;2022-12-16T20:53:27;-0.60;99.90
26270;DHT22;15937;50.612;6.656;2022-12-16T20:57:47;-0.70;99.90
26270;DHT22;15937;50.612;6.656;2022-12-16T21:02:09;-0.70;99.90
26270;DHT22;15937;50.612;6.656;2022-12-16T21:06:34;-0.60;99.90
26270;DHT22;15937;50.612;6.656;2022-12-16T21:10:56;-0.50;99.90
26270;DHT22;15937;50.612;6.656;2022-12-16T21:15:18;-0.60;99.90
26270;DHT22;15937;50.612;6.656;2022-12-16T21:19:38;-0.50;99.90
26270;DHT22;15937;50.612;6.656;2022-12-16T21:23:58;-0.40;99.90
26270;DHT22;15937;50.612;6.656;2022-12-16T21:28:18;-0.30;99.90
26270;DHT22;15937;50.612;6.656;2022-12-16T21:32:38;-0.50;99.90
26270;DHT22;15937;50.612;6.656;2022-12-16T21:36:58;-0.60;99.90
26270;DHT22;15937;50.612;6.656;2022-12-16T21:41:19;-0.50;99.90
26270;DHT22;15937;50.612;6.656;2022-12-16T21:45:39;-0.50;99.90
26270;DHT22;15937;50.612;6.656;2022-12-16T21:49:59;-0.40;99.90
26270;DHT22;15937;50.612;6.656;2022-12-16T21:54:19;-0.30;99.90
26270;DHT22;15937;50.612;6.656;2022-12-16T21:58:42;-0.40;99.90
26270;DHT22;15937;50.612;6.656;2022-12-16T22:03:03;-0.80;99.90
26270;DHT22;15937;50.612;6.656;2022-12-16T22:07:24;-0.60;99.90
26270;DHT22;15937;50.612;6.656;2022-12-16T22:11:45;-0.60;99.90
26270;DHT22;15937;50.612;6.656;2022-12-16T22:16:05;-0.60;99.90
26270;DHT22;15937;50.612;6.656;2022-12-16T22:20:25;-0.60;99.90
26270;DHT22;15937;50.612;6.656;2022-12-16T22:24:45;-0.40;99.90
26270;DHT22;15937;50.612;6.656;2022-12-16T22:29:14;-0.70;99.90
26270;DHT22;15937;50.612;6.656;2022-12-16T22:33:34;-0.60;99.90
26270;DHT22;15937;50.612;6.656;2022-12-16T22:37:56;-0.40;99.90
26270;DHT22;15937;50.612;6.656;2022-12-16T22:42:17;-0.40;99.90
26270;DHT22;15937;50.612;6.656;2022-12-16T22:46:37;-0.40;99.90
26270;DHT22;15937;50.612;6.656;2022-12-16T22:50:57;-0.40;99.90
26270;DHT22;15937;50.612;6.656;2022-12-16T22:55:17;-0.40;99.90
26270;DHT22;15937;50.612;6.656;2022-12-16T22:59:37;-0.40;99.90
26270;DHT22;15937;50.612;6.656;2022-12-16T23:03:59;-0.40;99.90
26270;DHT22;15937;50.612;6.656;2022-12-16T23:08:19;-0.40;99.90
26270;DHT22;15937;50.612;6.656;2022-12-16T23:12:39;-0.50;99.90
26270;DHT22;15937;50.612;6.656;2022-12-16T23:17:10;-0.40;99.90
26270;DHT22;15937;50.612;6.656;2022-12-16T23:21:30;-0.40;99.90
26270;DHT22;15937;50.612;6.656;2022-12-16T23:25:54;-0.30;99.90
26270;DHT22;15937;50.612;6.656;2022-12-16T23:30:15;-0.40;99.90
26270;DHT22;15937;50.612;6.656;2022-12-16T23:34:35;-0.50;99.90
26270;DHT22;15937;50.612;6.656;2022-12-16T23:38:55;-0.50;99.90
26270;DHT22;15937;50.612;6.656;2022-12-16T23:43:16;-0.50;99.90
26270;DHT22;15937;50.612;6.656;2022-12-16T23:47:36;-0.50;99.90
26270;DHT22;15937;50.612;6.656;2022-12-16T23:51:56;-0.60;99.90
26270;DHT22;15937;50.612;6.656;2022-12-16T23:56:17;-0.70;99.90
